Jeffersonville, GA

2:52 AM EDT on November 01, 2014 (GMT -0400)
Robins Air Force Base | Change Station
CLOSE
Current Station
Airport
Location: Warner Robins,
Elevation: 295 ft
Nearby Weather Stations

Elev 295 ft 32.64 °N, 83.59 °W | Updated 54 minutes ago

Overcast
Overcast
44 °F
Feels Like 38 °F
N
13
Wind Variable Wind from NW

Today
High -- | Low -- °F
--% Chance of Precip.
Yesterday
High -- | Low -- °F
Precip. -- in
7:50 AM 6:42 PM
Waxing Gibbous, 63% visible
Pressure 29.96 in
Visibility 10.0 miles
Clouds Few 4200 ft
Scattered Clouds 6500 ft
Overcast 8000 ft
Windchill 38 °F
Dew Point 30 °F
Humidity 57%
Rainfall 0.00 in
Snow Depth Not available.
UV 0 out of 12
Pollen 2.20 out of 12
Air Quality Not available.
Flu Activity Not available.
METAR KWRB 010558Z AUTO 31011KT 10SM FEW042 SCT065 OVC080 07/M01 A2995 RMK AO2 PK WND 31031/08 SLP144 60000 T00691010 10153 20069 52034

More Conditions Fewer Conditions

Pressure 29.96 in
Visibility 10.0 miles
Clouds Few 4200 ft
Scattered Clouds 6500 ft
Overcast 8000 ft
Windchill 38 °F
Dew Point 30 °F
Humidity 57%
Rainfall 0.00 in
Snow Depth Not available.
UV 0 out of 12
Pollen 2.20 out of 12
Air Quality Not available.
Flu Activity Not available.
METAR KWRB 010558Z AUTO 31011KT 10SM FEW042 SCT065 OVC080 07/M01 A2995 RMK AO2 PK WND 31031/08 SLP144 60000 T00691010 10153 20069 52034

More Conditions Fewer Conditions

10-Day Weather Forecast

Almanac

Astronomy

Nov. 01, 2014 Rise Set
Actual Time
Civil Twilight
Nautical Twilight
Astronomical Twilight
Moon
Length of Visible Light
Length of Day
Tomorrow will be .
, % of the Moon is Illuminated

Today's Extremes

State Highs State Lows

Community

WunderPhotos

Upload Photos

1,766,865 photos uploaded!

WunderBlogs® & News

Nearby

Air Quality

  Air Quality AQ Index Pollutant
Not available.

Snow Depth

Station Depth Elevation

Earthquake Activity

City Distance Mag. Time & Date
Minimum magnitude displayed is 2.5.

Coastal Water Temperatures

Place Temperature

Nearby Weather Stations